Details From KSEA - Seattle Tacoma Intl
To KHQM - BOWERMAN
Flight Number -
Tags decoded
Created
Modified
Stats Distance 76 nm / 142 km
Max Altitude 0 ft / 0 m
Waypoints 4
Social Downloads 2
Likes 0
Share VATSIM

Download

Looking for another format? Having issues loading an existing format? Contact us
Advertisement - Login to hide

Notes

Requested: KSEA NICHY ELMAA CVO KHQM

Route

KSEA NICHY ELMAA KHQM

ID Type Via Altitude Latitude Longitude Leg Dist Tot Dist Heading (true) Name
O KSEA APT - 0 ft / 0 m 47.45019˚ -122.31232˚ - 0 nm - Seattle Tacoma Intl
NICHY FIX - 0 ft / 0 m 47.35217˚ -122.30967˚ 5 nm 5 nm 179° / 179° -
ELMAA FIX - 0 ft / 0 m 47.14804˚ -123.40955˚ 46 nm 52 nm 255° / 254° -
O KHQM APT - 0 ft / 0 m 46.97120˚ -123.93656˚ 24 nm 76 nm 244° / 244° BOWERMAN

Altitude Profile

Advertisement - Login to hide

KSEA

Details ICAO KSEA (SEA)
Name Seattle Tacoma Intl
Region United States
Timezone America/Los_Angeles (UTC-8.0)
Stats Elevation 433 ft / 132 m (AMSL)
Location 47.450188° -122.312320°
Runways 3
Magnetic Variation 15.686° E

METAR

KSEA 110453Z 02008KT 10SM CLR 04/M02 A3031 RMK AO2 SLP273 T00441022 $

Decode

TAF

KSEA 110535Z 1106/1212 07003KT P6SM SKC FM111200 12003KT P6SM VCFG SKC FM112000 17004KT P6SM SKC FM120400 14005KT P6SM BKN200 FM121000 16005KT P6SM SCT080 BKN200

Decode

Departure Runways

ID Width Length Bearing (true) Bearing (mag) Surface Threshold Offset Overrun Length
16C 151 ft / 46 m 9,429 ft / 2,874 m 180.34° 164.65° Concrete 0 ft / 0 m 223 ft / 68 m
16L 151 ft / 46 m 11,904 ft / 3,628 m 180.34° 164.65° Concrete 0 ft / 0 m 151 ft / 46 m
16R 151 ft / 46 m 8,503 ft / 2,592 m 180.34° 164.65° Concrete 0 ft / 0 m 164 ft / 50 m
34C 151 ft / 46 m 9,429 ft / 2,874 m 0.34° 344.65° Concrete 0 ft / 0 m 394 ft / 120 m
34L 151 ft / 46 m 8,503 ft / 2,592 m 0.34° 344.65° Concrete 0 ft / 0 m 394 ft / 120 m
34R 151 ft / 46 m 11,904 ft / 3,628 m 0.34° 344.65° Concrete 0 ft / 0 m 400 ft / 122 m

KHQM

Details ICAO KHQM
Name BOWERMAN
Region United States
Timezone America/Los_Angeles (UTC-8.0)
Stats Elevation 18 ft / 5 m (AMSL)
Location 46.971196° -123.936564°
Runways 1
Magnetic Variation 15.842° E

METAR

KHQM 110453Z AUTO 06008KT 9SM CLR 04/00 A3027 RMK AO2 SLP253 T00390000

Decode

TAF

KHQM 110547Z 1106/1206 08011KT P6SM SKC FM120300 08009KT P6SM BKN200

Decode

Destination Runways

ID Width Length Bearing (true) Bearing (mag) Surface Threshold Offset Overrun Length
06 151 ft / 46 m 4,987 ft / 1,520 m 79.79° 63.95° Asphalt 0 ft / 0 m 0 ft / 0 m
24 151 ft / 46 m 4,987 ft / 1,520 m 259.81° 243.97° Asphalt 0 ft / 0 m 0 ft / 0 m

Approach Navaids

Runway Type Ident Frequency Range Bearing (true) Bearing (mag) Slope Elevation
24 Localiser IHQM 108.70 MHz 18 nm / 33 km 259.79° 243.95° - 18 ft / 5 m (AMSL)
24 Glidescope IHQM 108.70 MHz 10 nm / 19 km 259.80° 243.96° 3.00° 18 ft / 5 m (AMSL)
24 DME IHQM 108.70 MHz 18 nm / 33 km - - - 18 ft / 5 m (AMSL)

Popular Alternatives